Hub


Voltar

 INFORMAÇÕES METEOROLÓGICAS

METAR FOR GCLA


ADDS - METARS form results

(1254 UTC 26 April 2019)
Data provider http://aviationweather.gov/metar/data/
 
METAR text: GCLA 261230Z 03013KT 360V060 9999 FEW025 BKN035 20/12 Q1023
Conditions at: GCLA (LA PALMA AIRPORT, ES) observed 1230 UTC 26 April 2019
Temperature: 20.0°C (68°F)
Dewpoint: 12.0°C (54°F) [RH = 60%]
Pressure (altimeter): 30.21 inches Hg (1023.0 mb)
Winds: from the NNE (30 degrees) at 15 MPH (13 knots; 6.7 m/s)
Visibility: 6 or more miles (10+ km)
Ceiling: 3500 feet AGL
Clouds: few clouds at 2500 feet AGL
broken clouds at 3500 feet AGL
Weather: no significant weather observed at this time

METAR text: GCLA 261200Z 03014KT 9999 FEW025 BKN035 19/11 Q1024
Conditions at: GCLA (LA PALMA AIRPORT, ES) observed 1200 UTC 26 April 2019
Temperature: 19.0°C (66°F)
Dewpoint: 11.0°C (52°F) [RH = 60%]
Pressure (altimeter): 30.24 inches Hg (1024.0 mb)
Winds: from the NNE (30 degrees) at 16 MPH (14 knots; 7.2 m/s)
Visibility: 6 or more miles (10+ km)
Ceiling: 3500 feet AGL
Clouds: few clouds at 2500 feet AGL
broken clouds at 3500 feet AGL
Weather: no significant weather observed at this time

Forecast for: GCLA (LA PALMA AIRPORT, ES)
Text: TAF GCLA 260800Z 2609/2709 02012KT 9999 BKN030 TX22/2614Z TN17/2705Z
Forecast period: 0900 UTC 26 April 2019 to 0900 UTC 27 April 2019
Forecast type: FROM: standard forecast or significant change
Winds: from the NNE (20 degrees) at 14 MPH (12 knots; 6.2 m/s)
Visibility: 6 or more miles 10+ km)
Ceiling: 3000 feet AGL
Clouds: broken clouds at 3000 feet AGL
Weather: no significant weather forecast for this period
Text: PROB30
Forecast period: 0900 to 1100 UTC 26 April 2019
Forecast type: TEMPORARY: The following changes expected for less than half the time period
Visibility: missing
Ceiling: unknown
Clouds: missing
Weather: DZ  (moderate drizzle)


 MAPA DO AEROPORTO


 INFORMAÇÕES DA PISTA

Pista 01 Tamanho da pista 7218 ft Largura da pista 148 ft
Elevação da pista 103 ft Ranhura da pista 0 ft Proa da pista 359
Pista 19 Tamanho da pista 7218 ft Largura da pista 148 ft
Elevação da pista 65 ft Ranhura da pista 0 ft Proa da pista 179

 FREQUÊNCIAS DO AEROPORTO

Tipo APP Nome CANARIAS A Frequência 126.1 MHZ
Tipo ATIS Nome INFO Frequência 118.6 MHZ
Tipo GND Nome GND Frequência 121.8 MHZ
Tipo TWR Nome TWR Frequência 118.9 MHZ

 AUXÍLIOS DE NAVEGAÇÃO PRÓXIMOS AO AEROPORTO

Tipo DME Nome La Palma Frequência 112400 KHZ
Tipo NDB Nome La Palma Frequência 389 KHZ